Time;durP1;ratioP1;P1;durP2;ratioP2;P2;SDS_P1;SDS_P2;PMS_P1;PMS_P2;Temp;Humidity;BMP_temperature;BMP_pressure;BME280_temperature;BME280_humidity;BME280_pressure;Samples;Min_cycle;Max_cycle;Signal;HPM_P1;HPM_P2
2022/04/14 00:01:48;;;;;;;3.35;1.20;;;;;;;;;;5042217;28;20118;-81
2022/04/14 00:04:13;;;;;;;3.25;1.30;;;;;;;;;;5032453;28;20043;-82
2022/04/14 00:06:39;;;;;;;2.83;1.58;;;;;;;;;;5061117;28;20093;-82
2022/04/14 00:09:04;;;;;;;4.60;1.42;;;;;;;;;;5039130;28;20555;-82
2022/04/14 00:11:30;;;;;;;2.47;1.10;;;;;;;;;;5058395;28;20028;-82
2022/04/14 00:13:56;;;;;;;1.95;1.13;;;;;;;;;;5057607;28;20036;-82
2022/04/14 00:16:21;;;;;;;2.00;1.20;;;;;;;;;;5060970;28;20042;-81
2022/04/14 00:18:47;;;;;;;2.60;1.08;;;;;;;;;;5045126;28;20039;-82
2022/04/14 00:21:12;;;;;;;2.38;1.30;;;;;;;;;;5061710;28;20040;-81
2022/04/14 00:23:38;;;;;;;2.33;1.08;;;;;;;;;;5044947;28;20031;-81
2022/04/14 00:26:03;;;;;;;1.80;1.13;;;;;;;;;;5044501;28;20078;-81
2022/04/14 00:28:29;;;;;;;2.17;1.17;;;;;;;;;;5044615;28;20031;-81
2022/04/14 00:30:54;;;;;;;2.22;1.10;;;;;;;;;;5060024;28;20035;-81
2022/04/14 00:33:20;;;;;;;2.95;1.42;;;;;;;;;;5061321;28;20114;-81
2022/04/14 00:35:45;;;;;;;2.65;1.20;;;;;;;;;;5044330;28;20032;-81
2022/04/14 00:38:11;;;;;;;2.92;1.08;;;;;;;;;;5061680;28;20054;-81
2022/04/14 00:40:36;;;;;;;4.13;1.42;;;;;;;;;;5060526;28;20039;-81
2022/04/14 00:43:02;;;;;;;2.92;1.13;;;;;;;;;;5060757;28;20036;-81
2022/04/14 00:45:27;;;;;;;2.20;1.27;;;;;;;;;;5044614;28;20057;-81
2022/04/14 00:47:53;;;;;;;2.38;1.40;;;;;;;;;;5061600;28;20028;-81
2022/04/14 00:50:18;;;;;;;2.20;1.00;;;;;;;;;;5077568;28;20122;-81
2022/04/14 00:52:45;;;;;;;2.08;1.17;;;;;;;;;;5077216;28;20044;-81
2022/04/14 00:55:10;;;;;;;2.28;1.10;;;;;;;;;;5044142;28;20038;-82
2022/04/14 00:57:36;;;;;;;2.67;1.08;;;;;;;;;;5043671;28;20118;-82
2022/04/14 01:00:02;;;;;;;2.00;1.05;;;;;;;;;;5044263;28;20127;-82
2022/04/14 01:02:27;;;;;;;1.67;0.82;;;;;;;;;;5057321;28;20036;-82
2022/04/14 01:04:53;;;;;;;3.45;1.45;;;;;;;;;;5040710;28;20079;-81
2022/04/14 01:07:18;;;;;;;2.03;0.85;;;;;;;;;;5040962;28;20032;-82
2022/04/14 01:09:44;;;;;;;2.30;0.90;;;;;;;;;;5024085;28;20066;-81
2022/04/14 01:12:10;;;;;;;2.05;0.85;;;;;;;;;;5040408;28;20028;-81
2022/04/14 01:14:36;;;;;;;2.63;1.10;;;;;;;;;;5024132;28;20031;-81
2022/04/14 01:17:03;;;;;;;2.72;1.00;;;;;;;;;;5024148;28;20110;-81
2022/04/14 01:19:29;;;;;;;2.63;0.90;;;;;;;;;;5040857;28;20040;-82
2022/04/14 01:22:04;;;;;;;1.88;1.02;;;;;;;;;;5040780;28;20036;-81
2022/04/14 01:24:29;;;;;;;1.55;0.93;;;;;;;;;;5056705;28;20055;-81
2022/04/14 01:26:55;;;;;;;1.15;0.68;;;;;;;;;;5023811;28;20502;-81
2022/04/14 01:29:24;;;;;;;2.58;1.20;;;;;;;;;;5024301;28;20040;-81
2022/04/14 01:31:50;;;;;;;2.40;0.98;;;;;;;;;;5040929;28;20044;-81
2022/04/14 01:34:16;;;;;;;2.83;1.00;;;;;;;;;;5024328;28;20039;-81
2022/04/14 01:36:41;;;;;;;1.85;0.77;;;;;;;;;;5040284;28;20032;-81
2022/04/14 01:39:08;;;;;;;3.03;1.00;;;;;;;;;;5040566;28;20044;-81
2022/04/14 01:41:34;;;;;;;2.83;0.90;;;;;;;;;;5023951;28;20032;-81
2022/04/14 01:43:59;;;;;;;2.15;0.70;;;;;;;;;;5023976;28;20032;-82
2022/04/14 01:46:25;;;;;;;1.90;0.63;;;;;;;;;;5040874;28;20047;-82
2022/04/14 01:48:50;;;;;;;1.70;0.93;;;;;;;;;;5040411;28;20024;-81
2022/04/14 01:51:16;;;;;;;2.00;1.00;;;;;;;;;;5023655;28;20039;-81
2022/04/14 01:53:41;;;;;;;1.88;0.80;;;;;;;;;;5043354;28;20131;-81
2022/04/14 01:56:07;;;;;;;1.88;0.88;;;;;;;;;;5044002;28;20080;-82
2022/04/14 01:58:32;;;;;;;2.55;0.98;;;;;;;;;;5060819;28;20036;-81
2022/04/14 02:00:57;;;;;;;1.50;0.95;;;;;;;;;;5027616;28;20055;-81
2022/04/14 02:03:23;;;;;;;1.55;0.57;;;;;;;;;;5041125;28;20036;-81
2022/04/14 02:05:49;;;;;;;1.30;0.70;;;;;;;;;;5027642;28;20088;-81
2022/04/14 02:08:14;;;;;;;1.25;0.75;;;;;;;;;;5044069;28;20042;-81
2022/04/14 02:10:40;;;;;;;1.58;1.33;;;;;;;;;;5060269;28;20032;-81
2022/04/14 02:13:05;;;;;;;1.73;0.80;;;;;;;;;;5027642;28;20036;-81
2022/04/14 02:15:30;;;;;;;1.58;0.77;;;;;;;;;;5027292;28;20058;-81
2022/04/14 02:17:57;;;;;;;2.65;0.90;;;;;;;;;;5027660;28;20043;-81
2022/04/14 02:20:23;;;;;;;1.65;0.80;;;;;;;;;;5027585;28;20047;-81
2022/04/14 02:22:49;;;;;;;1.40;0.70;;;;;;;;;;5027403;28;20048;-81
2022/04/14 02:25:14;;;;;;;1.83;0.98;;;;;;;;;;5043295;28;20051;-82
2022/04/14 02:27:40;;;;;;;2.50;0.98;;;;;;;;;;5027302;28;20032;-81
2022/04/14 02:30:06;;;;;;;2.15;1.05;;;;;;;;;;5027015;28;20036;-81
2022/04/14 02:32:31;;;;;;;1.77;0.80;;;;;;;;;;5043859;28;20036;-81
2022/04/14 02:34:56;;;;;;;1.60;0.77;;;;;;;;;;5043747;28;20482;-81
2022/04/14 02:37:22;;;;;;;2.50;0.90;;;;;;;;;;5043378;28;20113;-82
2022/04/14 02:39:47;;;;;;;1.60;0.65;;;;;;;;;;5059812;28;21025;-81
2022/04/14 02:42:13;;;;;;;2.13;0.80;;;;;;;;;;5043100;28;20904;-82
2022/04/14 02:44:38;;;;;;;1.45;0.85;;;;;;;;;;5026920;28;20048;-81
2022/04/14 02:47:04;;;;;;;2.17;0.70;;;;;;;;;;5026951;28;20067;-81
2022/04/14 02:49:29;;;;;;;2.00;0.77;;;;;;;;;;5026645;28;20391;-81
2022/04/14 02:51:55;;;;;;;1.50;0.88;;;;;;;;;;5043014;28;20544;-81
2022/04/14 02:54:20;;;;;;;2.10;1.05;;;;;;;;;;5043180;28;20040;-81
2022/04/14 02:56:46;;;;;;;1.48;0.60;;;;;;;;;;5042906;28;20036;-82
2022/04/14 02:59:11;;;;;;;1.15;0.60;;;;;;;;;;5026818;28;20494;-81
2022/04/14 03:01:37;;;;;;;1.40;0.70;;;;;;;;;;5045055;28;20039;-81
2022/04/14 03:04:02;;;;;;;2.25;1.00;;;;;;;;;;5046011;28;20448;-82
2022/04/14 03:06:27;;;;;;;1.80;0.80;;;;;;;;;;5062783;28;20049;-82
2022/04/14 03:08:53;;;;;;;2.30;1.05;;;;;;;;;;5045876;28;20036;-82
2022/04/14 03:11:18;;;;;;;1.85;0.70;;;;;;;;;;5046042;28;20463;-81
2022/04/14 03:13:44;;;;;;;2.22;0.90;;;;;;;;;;5079368;28;20032;-81
2022/04/14 03:16:09;;;;;;;1.58;0.80;;;;;;;;;;5046121;28;20028;-81
2022/04/14 03:18:35;;;;;;;1.60;0.80;;;;;;;;;;5063126;28;20059;-81
2022/04/14 03:21:01;;;;;;;1.80;0.88;;;;;;;;;;5062467;28;20076;-81
2022/04/14 03:23:27;;;;;;;1.95;1.00;;;;;;;;;;5062485;28;20121;-81
2022/04/14 03:25:52;;;;;;;1.75;0.80;;;;;;;;;;5045912;28;20493;-81
2022/04/14 03:28:17;;;;;;;1.27;0.80;;;;;;;;;;5079247;28;20039;-81
2022/04/14 03:30:43;;;;;;;1.42;0.68;;;;;;;;;;5062136;28;20054;-81
2022/04/14 03:33:08;;;;;;;1.23;0.70;;;;;;;;;;5079311;28;20031;-81
2022/04/14 03:35:34;;;;;;;2.60;1.13;;;;;;;;;;5062467;28;20036;-81
2022/04/14 03:37:59;;;;;;;2.03;1.00;;;;;;;;;;5078574;28;20434;-81
2022/04/14 03:40:25;;;;;;;1.73;0.82;;;;;;;;;;5062131;28;20409;-81
2022/04/14 03:42:50;;;;;;;2.13;0.90;;;;;;;;;;5062370;28;20405;-81
2022/04/14 03:45:15;;;;;;;1.63;1.00;;;;;;;;;;5045787;28;20031;-81
2022/04/14 03:47:41;;;;;;;2.00;0.85;;;;;;;;;;5062167;28;20104;-81
2022/04/14 03:50:07;;;;;;;2.20;0.95;;;;;;;;;;5045584;28;20383;-81
2022/04/14 03:52:32;;;;;;;1.65;0.50;;;;;;;;;;5044887;28;20451;-81
2022/04/14 03:54:59;;;;;;;1.55;0.85;;;;;;;;;;5045396;28;20120;-81
2022/04/14 03:57:24;;;;;;;1.17;0.68;;;;;;;;;;5078490;28;20035;-81
2022/04/14 03:59:50;;;;;;;1.75;0.80;;;;;;;;;;5042349;28;20054;-81
2022/04/14 04:02:15;;;;;;;2.55;0.70;;;;;;;;;;5058442;28;20076;-81
2022/04/14 04:04:41;;;;;;;1.48;0.68;;;;;;;;;;5056988;28;20028;-81
2022/04/14 04:07:07;;;;;;;1.55;0.82;;;;;;;;;;5058466;28;20055;-80
2022/04/14 04:09:33;;;;;;;1.30;0.60;;;;;;;;;;5042300;28;20032;-81
2022/04/14 04:11:59;;;;;;;1.77;0.80;;;;;;;;;;5050399;28;20405;-80
2022/04/14 04:14:24;;;;;;;2.22;0.90;;;;;;;;;;5046496;28;20401;-80
2022/04/14 04:16:50;;;;;;;2.15;0.90;;;;;;;;;;5077550;28;20035;-81
2022/04/14 04:19:16;;;;;;;1.15;0.70;;;;;;;;;;5044989;28;20144;-81
2022/04/14 04:21:41;;;;;;;1.45;0.88;;;;;;;;;;5044613;28;20032;-81
2022/04/14 04:24:07;;;;;;;1.88;0.68;;;;;;;;;;5061326;28;20044;-81
2022/04/14 04:26:32;;;;;;;2.60;0.82;;;;;;;;;;5077772;28;20449;-81
2022/04/14 04:28:58;;;;;;;2.30;0.80;;;;;;;;;;5044848;28;20166;-81
2022/04/14 04:31:23;;;;;;;1.80;0.90;;;;;;;;;;5061304;28;20038;-81
2022/04/14 04:33:51;;;;;;;2.13;0.80;;;;;;;;;;5061180;28;20039;-81
2022/04/14 04:36:19;;;;;;;1.77;0.90;;;;;;;;;;5044883;28;20514;-81
2022/04/14 04:38:45;;;;;;;1.67;1.00;;;;;;;;;;5044350;28;20505;-80
2022/04/14 04:41:10;;;;;;;1.98;0.80;;;;;;;;;;5077655;28;20044;-81
2022/04/14 04:43:36;;;;;;;3.13;1.05;;;;;;;;;;5061018;28;20039;-81
2022/04/14 04:46:01;;;;;;;1.50;0.90;;;;;;;;;;5077954;28;20076;-81
2022/04/14 04:48:27;;;;;;;2.60;0.80;;;;;;;;;;5060870;28;20036;-81
2022/04/14 04:50:52;;;;;;;1.55;0.70;;;;;;;;;;5076936;28;20122;-82
2022/04/14 04:53:18;;;;;;;1.42;0.70;;;;;;;;;;5060817;28;20421;-82
2022/04/14 04:55:43;;;;;;;1.50;0.90;;;;;;;;;;5044235;28;20039;-81
2022/04/14 04:58:09;;;;;;;1.67;0.80;;;;;;;;;;5044226;28;20035;-82
2022/04/14 05:00:35;;;;;;;2.17;0.93;;;;;;;;;;5077187;28;20048;-82
2022/04/14 05:03:00;;;;;;;1.90;1.17;;;;;;;;;;5058580;28;20057;-82
2022/04/14 05:05:25;;;;;;;2.35;1.10;;;;;;;;;;5049721;28;20044;-85
2022/04/14 05:07:52;;;;;;;2.05;1.00;;;;;;;;;;5042609;28;20024;-83
2022/04/14 05:10:17;;;;;;;3.50;1.30;;;;;;;;;;5041081;28;20150;-92
2022/04/14 05:12:43;;;;;;;2.25;0.75;;;;;;;;;;5039528;28;20160;-83
2022/04/14 05:15:10;;;;;;;1.27;0.80;;;;;;;;;;5055910;28;20040;-86
2022/04/14 05:17:35;;;;;;;1.83;1.00;;;;;;;;;;5041320;28;20020;-87
2022/04/14 05:20:02;;;;;;;2.85;1.00;;;;;;;;;;5043817;28;20061;-87
2022/04/14 05:22:27;;;;;;;2.03;1.13;;;;;;;;;;5058495;28;20409;-86
2022/04/14 05:24:54;;;;;;;1.85;1.17;;;;;;;;;;5040720;28;20028;-88
2022/04/14 05:27:19;;;;;;;1.60;0.93;;;;;;;;;;5051303;28;20032;-88
2022/04/14 05:29:51;;;;;;;1.70;0.88;;;;;;;;;;5071048;28;20059;-89
2022/04/14 05:32:16;;;;;;;2.92;0.88;;;;;;;;;;5042792;28;20043;-87
2022/04/14 05:34:42;;;;;;;2.15;1.20;;;;;;;;;;5074117;28;20036;-87
2022/04/14 05:37:07;;;;;;;1.92;1.20;;;;;;;;;;5044121;28;20027;-88
2022/04/14 05:39:35;;;;;;;1.92;0.95;;;;;;;;;;5060815;28;20030;-87
2022/04/14 05:42:00;;;;;;;3.17;1.10;;;;;;;;;;5057404;28;20028;-87
2022/04/14 05:44:27;;;;;;;3.63;1.30;;;;;;;;;;5057635;28;20051;-87
2022/04/14 05:46:53;;;;;;;1.70;0.90;;;;;;;;;;5042132;28;20016;-88
2022/04/14 05:49:20;;;;;;;2.40;1.20;;;;;;;;;;5060843;28;20118;-88
2022/04/14 05:51:47;;;;;;;2.47;1.10;;;;;;;;;;5075405;28;20035;-88
2022/04/14 05:54:14;;;;;;;2.58;1.08;;;;;;;;;;5041916;28;20084;-83
2022/04/14 05:56:40;;;;;;;1.80;0.93;;;;;;;;;;5059430;28;20110;-82
2022/04/14 05:59:05;;;;;;;3.28;0.98;;;;;;;;;;5076486;28;20107;-82
2022/04/14 06:01:31;;;;;;;3.47;1.00;;;;;;;;;;5057205;28;20028;-82
2022/04/14 06:03:56;;;;;;;5.53;1.20;;;;;;;;;;5039948;28;20044;-82
2022/04/14 06:06:21;;;;;;;4.90;1.33;;;;;;;;;;5022498;28;20111;-81
2022/04/14 06:08:47;;;;;;;5.65;1.80;;;;;;;;;;5023458;28;20028;-81
2022/04/14 06:11:12;;;;;;;4.38;1.63;;;;;;;;;;5023468;28;20028;-83
2022/04/14 06:13:38;;;;;;;4.85;2.60;;;;;;;;;;5039781;28;20497;-83
2022/04/14 06:16:05;;;;;;;8.65;4.97;;;;;;;;;;5029017;28;20030;-82
2022/04/14 06:18:30;;;;;;;8.82;5.07;;;;;;;;;;5059940;28;20027;-84
2022/04/14 06:20:56;;;;;;;12.30;5.90;;;;;;;;;;5059881;28;20050;-81
2022/04/14 06:23:21;;;;;;;9.43;5.88;;;;;;;;;;5076941;28;20036;-82
2022/04/14 06:25:50;;;;;;;7.82;5.63;;;;;;;;;;5041566;28;20024;-82
2022/04/14 06:28:17;;;;;;;8.45;5.72;;;;;;;;;;5060388;28;20040;-81
2022/04/14 06:30:43;;;;;;;10.82;4.93;;;;;;;;;;5076149;28;20038;-81
2022/04/14 06:33:08;;;;;;;11.45;4.82;;;;;;;;;;5042827;28;20126;-82
2022/04/14 06:35:33;;;;;;;6.70;4.07;;;;;;;;;;5042599;28;20031;-81
2022/04/14 06:37:59;;;;;;;10.05;4.03;;;;;;;;;;5060135;28;20126;-81
2022/04/14 06:40:24;;;;;;;8.52;3.50;;;;;;;;;;5046688;28;20038;-82
2022/04/14 06:42:50;;;;;;;9.38;4.03;;;;;;;;;;5079746;28;20053;-81
2022/04/14 06:45:15;;;;;;;6.38;2.72;;;;;;;;;;5046488;28;20486;-82
2022/04/14 06:47:41;;;;;;;6.63;2.92;;;;;;;;;;5063363;28;20039;-81
2022/04/14 06:50:06;;;;;;;10.70;2.95;;;;;;;;;;5063235;28;20050;-81
2022/04/14 06:52:32;;;;;;;4.85;2.30;;;;;;;;;;5080053;28;20050;-81
2022/04/14 06:54:59;;;;;;;9.00;2.67;;;;;;;;;;5062587;28;20038;-81
2022/04/14 06:57:24;;;;;;;3.88;2.00;;;;;;;;;;5046327;28;20039;-81
2022/04/14 06:59:50;;;;;;;5.05;1.95;;;;;;;;;;5079352;28;20076;-81
2022/04/14 07:02:15;;;;;;;4.80;2.08;;;;;;;;;;5073985;28;20502;-81
2022/04/14 07:04:40;;;;;;;8.30;1.75;;;;;;;;;;5059114;28;20044;-81
2022/04/14 07:07:06;;;;;;;8.75;1.90;;;;;;;;;;5042720;28;20028;-82
2022/04/14 07:09:34;;;;;;;5.25;2.17;;;;;;;;;;5042837;28;20036;-81
2022/04/14 07:12:00;;;;;;;6.50;2.35;;;;;;;;;;5042990;28;20146;-82
2022/04/14 07:14:30;;;;;;;3.25;1.63;;;;;;;;;;5058969;28;20119;-82
2022/04/14 07:16:56;;;;;;;2.60;1.63;;;;;;;;;;5059227;28;20512;-81
2022/04/14 07:19:21;;;;;;;5.05;1.80;;;;;;;;;;5045759;28;20036;-81
2022/04/14 07:21:46;;;;;;;3.63;1.58;;;;;;;;;;5079233;28;20047;-82
2022/04/14 07:24:12;;;;;;;6.68;1.90;;;;;;;;;;5062362;28;20040;-82
2022/04/14 07:26:37;;;;;;;4.13;1.75;;;;;;;;;;5045775;28;20041;-81
2022/04/14 07:29:03;;;;;;;2.70;1.70;;;;;;;;;;5078782;28;20402;-81
2022/04/14 07:31:31;;;;;;;3.72;1.42;;;;;;;;;;5045682;28;20477;-82
2022/04/14 07:33:59;;;;;;;3.67;1.63;;;;;;;;;;5046308;28;20562;-81
2022/04/14 07:36:25;;;;;;;4.20;1.80;;;;;;;;;;5045857;28;20036;-82
2022/04/14 07:38:51;;;;;;;3.78;1.73;;;;;;;;;;5045496;28;20023;-82
2022/04/14 07:41:16;;;;;;;4.78;2.90;;;;;;;;;;5045146;28;20031;-82
2022/04/14 07:43:41;;;;;;;6.07;2.72;;;;;;;;;;5043263;28;20114;-82
2022/04/14 07:46:07;;;;;;;6.03;3.00;;;;;;;;;;5078351;28;20040;-82
2022/04/14 07:48:33;;;;;;;7.38;3.25;;;;;;;;;;5045409;28;20148;-82
2022/04/14 07:51:00;;;;;;;6.30;2.47;;;;;;;;;;5077588;28;20047;-82
2022/04/14 07:53:25;;;;;;;9.57;2.78;;;;;;;;;;5079019;28;20124;-81
2022/04/14 07:55:51;;;;;;;6.95;2.60;;;;;;;;;;5060080;28;20035;-82
2022/04/14 07:58:17;;;;;;;6.00;2.78;;;;;;;;;;5051776;28;20040;-83
2022/04/14 08:00:42;;;;;;;6.35;2.45;;;;;;;;;;5041516;28;20032;-82
2022/04/14 08:03:09;;;;;;;3.60;1.95;;;;;;;;;;5045894;28;20032;-82
2022/04/14 08:05:34;;;;;;;5.38;2.08;;;;;;;;;;5041660;28;20032;-83
2022/04/14 08:08:00;;;;;;;7.05;2.53;;;;;;;;;;5058449;28;20094;-82
2022/04/14 08:10:26;;;;;;;5.40;2.65;;;;;;;;;;5041376;28;20029;-83
2022/04/14 08:12:51;;;;;;;5.28;2.08;;;;;;;;;;5041040;28;20493;-82
2022/04/14 08:15:17;;;;;;;7.70;2.05;;;;;;;;;;5074519;28;20031;-81
2022/04/14 08:17:43;;;;;;;5.32;2.10;;;;;;;;;;5058164;28;20032;-82
2022/04/14 08:20:09;;;;;;;6.97;2.38;;;;;;;;;;5024767;28;20460;-81
2022/04/14 08:22:52;;;;;;;5.40;1.85;;;;;;;;;;5041883;28;20076;-81
2022/04/14 08:25:20;;;;;;;4.53;1.95;;;;;;;;;;5041438;28;20039;-82
2022/04/14 08:27:47;;;;;;;4.72;1.70;;;;;;;;;;5024752;28;20486;-82
2022/04/14 08:30:13;;;;;;;5.75;1.85;;;;;;;;;;5041464;28;20043;-81
2022/04/14 08:32:38;;;;;;;4.13;1.80;;;;;;;;;;5041439;28;20028;-81
2022/04/14 08:35:05;;;;;;;5.53;2.97;;;;;;;;;;5041238;28;20391;-81
2022/04/14 08:37:31;;;;;;;4.18;1.92;;;;;;;;;;5057590;28;20532;-82
2022/04/14 08:39:59;;;;;;;5.03;2.40;;;;;;;;;;5040901;28;20059;-81
2022/04/14 08:42:26;;;;;;;10.35;2.08;;;;;;;;;;5043823;28;20081;-81
2022/04/14 08:44:59;;;;;;;3.95;2.20;;;;;;;;;;5070858;28;20111;-81
2022/04/14 08:47:24;;;;;;;8.93;2.30;;;;;;;;;;5044968;28;20512;-82
2022/04/14 08:49:50;;;;;;;5.03;2.22;;;;;;;;;;5055573;28;20035;-82
2022/04/14 08:52:16;;;;;;;6.22;1.95;;;;;;;;;;5038827;28;20040;-81
2022/04/14 08:54:44;;;;;;;6.85;2.10;;;;;;;;;;5040682;28;20042;-81
2022/04/14 08:57:13;;;;;;;6.22;2.92;;;;;;;;;;5057083;28;20493;-81
2022/04/14 08:59:40;;;;;;;5.93;2.50;;;;;;;;;;5074030;28;20063;-81
2022/04/14 09:02:06;;;;;;;8.23;2.40;;;;;;;;;;5046859;28;20032;-81
2022/04/14 09:04:31;;;;;;;5.95;2.42;;;;;;;;;;5056259;28;20075;-81
2022/04/14 09:06:56;;;;;;;9.48;3.03;;;;;;;;;;5073942;28;20528;-82
2022/04/14 09:09:24;;;;;;;7.10;3.22;;;;;;;;;;5060144;28;20051;-81
2022/04/14 09:11:49;;;;;;;7.78;3.95;;;;;;;;;;5060134;28;20040;-81
2022/04/14 09:14:15;;;;;;;11.43;7.32;;;;;;;;;;5048435;28;20066;-84
2022/04/14 09:16:41;;;;;;;17.55;12.52;;;;;;;;;;5053253;28;20040;-84
2022/04/14 09:19:06;;;;;;;18.98;12.25;;;;;;;;;;5072976;28;20043;-82
2022/04/14 09:21:32;;;;;;;12.50;9.18;;;;;;;;;;5057345;28;20036;-81
2022/04/14 09:23:58;;;;;;;12.00;8.18;;;;;;;;;;5083504;28;20118;-82
2022/04/14 09:26:26;;;;;;;14.88;10.15;;;;;;;;;;5060201;28;20028;-82
2022/04/14 09:29:10;;;;;;;18.83;11.50;;;;;;;;;;5041154;28;20090;-81
2022/04/14 09:31:46;;;;;;;17.98;12.38;;;;;;;;;;5074377;28;20032;-81
2022/04/14 09:34:14;;;;;;;21.02;14.95;;;;;;;;;;5064683;28;20027;-82
2022/04/14 09:36:39;;;;;;;29.83;13.95;;;;;;;;;;5040667;28;20032;-81
2022/04/14 09:39:06;;;;;;;19.67;13.68;;;;;;;;;;5034986;28;20379;-82
2022/04/14 09:41:37;;;;;;;22.50;16.02;;;;;;;;;;5023855;28;20029;-83
2022/04/14 09:44:13;;;;;;;16.80;13.70;;;;;;;;;;5041305;28;20032;-82
2022/04/14 09:46:42;;;;;;;17.08;13.48;;;;;;;;;;5024207;28;20070;-82
2022/04/14 09:49:09;;;;;;;17.40;13.90;;;;;;;;;;5040356;28;20097;-82
2022/04/14 09:51:38;;;;;;;16.85;13.88;;;;;;;;;;5056940;28;20036;-84
2022/04/14 09:54:26;;;;;;;18.75;15.52;;;;;;;;;;5040556;28;20032;-83
2022/04/14 09:56:54;;;;;;;18.77;14.88;;;;;;;;;;5040732;28;20032;-83
2022/04/14 09:59:29;;;;;;;21.02;17.92;;;;;;;;;;5040363;28;20506;-83
2022/04/14 10:02:16;;;;;;;29.80;20.67;;;;;;;;;;5061428;28;20027;-84
2022/04/14 10:04:47;;;;;;;22.70;19.13;;;;;;;;;;5076895;28;20044;-84
2022/04/14 10:07:19;;;;;;;20.23;18.00;;;;;;;;;;5059814;28;20200;-83
2022/04/14 10:09:45;;;;;;;;;;;;;;;;;;5060416;28;20092;-84
2022/04/14 10:12:17;;;;;;;17.85;15.50;;;;;;;;;;5076993;28;20338;-84
2022/04/14 10:14:44;;;;;;;19.17;16.05;;;;;;;;;;5079876;28;20164;-83
2022/04/14 10:17:10;;;;;;;19.42;14.93;;;;;;;;;;5047417;28;20382;-83
2022/04/14 10:19:36;;;;;;;17.05;15.15;;;;;;;;;;5080581;28;20032;-83
2022/04/14 10:22:03;;;;;;;17.65;15.40;;;;;;;;;;5061801;28;20070;-83
2022/04/14 10:24:29;;;;;;;15.98;12.60;;;;;;;;;;5046365;28;20106;-83
2022/04/14 10:26:55;;;;;;;12.50;9.98;;;;;;;;;;5039043;28;20032;-83
2022/04/14 10:29:21;;;;;;;12.30;9.65;;;;;;;;;;5115443;28;20023;-83
2022/04/14 10:31:49;;;;;;;10.70;9.02;;;;;;;;;;5080358;28;20039;-83
2022/04/14 10:34:15;;;;;;;11.40;9.27;;;;;;;;;;5047717;28;20036;-84
2022/04/14 10:36:41;;;;;;;14.88;11.40;;;;;;;;;;5079696;28;20038;-83
2022/04/14 10:39:13;;;;;;;11.07;8.35;;;;;;;;;;5063540;28;20106;-83
2022/04/14 10:41:45;;;;;;;10.73;8.23;;;;;;;;;;5046990;28;20032;-82
2022/04/14 10:44:10;;;;;;;10.07;8.18;;;;;;;;;;5063914;28;20071;-82
2022/04/14 10:46:40;;;;;;;8.75;7.40;;;;;;;;;;5046824;28;20038;-82
2022/04/14 10:49:13;;;;;;;7.97;6.05;;;;;;;;;;5046812;28;20031;-82
2022/04/14 10:51:38;;;;;;;8.27;6.35;;;;;;;;;;5046885;28;20036;-82
2022/04/14 10:54:05;;;;;;;7.07;6.07;;;;;;;;;;5046684;28;20043;-82
2022/04/14 10:56:33;;;;;;;8.10;5.53;;;;;;;;;;5077990;28;20038;-83
2022/04/14 10:58:59;;;;;;;9.48;7.60;;;;;;;;;;5076110;28;20036;-83
2022/04/14 11:01:52;;;;;;;13.85;7.97;;;;;;;;;;5027279;28;20390;-83
2022/04/14 11:04:21;;;;;;;19.88;7.10;;;;;;;;;;5073520;28;20058;-83
2022/04/14 11:06:47;;;;;;;18.42;6.65;;;;;;;;;;5087019;28;20040;-84
2022/04/14 11:09:42;;;;;;;11.10;6.93;;;;;;;;;;5046557;28;20035;-83
2022/04/14 11:12:18;;;;;;;106.45;95.22;;;;;;;;;;5071260;28;20036;-83
2022/04/14 11:14:59;;;;;;;66.22;59.03;;;;;;;;;;5079506;28;20027;-83
2022/04/14 11:17:30;;;;;;;48.42;43.17;;;;;;;;;;5094410;28;20047;-83
2022/04/14 11:20:05;;;;;;;33.70;30.05;;;;;;;;;;5079262;28;20036;-83
2022/04/14 11:22:57;;;;;;;33.20;27.45;;;;;;;;;;5040186;28;20047;-84
2022/04/14 11:28:25;;;;;;;26.13;22.15;;;;;;;;;;5075386;28;20075;-84
2022/04/14 11:31:00;;;;;;;25.02;20.20;;;;;;;;;;5067858;28;20115;-83
2022/04/14 11:33:31;;;;;;;29.35;20.23;;;;;;;;;;5058197;28;20096;-83
2022/04/14 11:36:13;;;;;;;23.38;16.92;;;;;;;;;;5069462;28;20040;-84
2022/04/14 11:38:55;;;;;;;22.85;18.25;;;;;;;;;;5028358;28;20074;-83
2022/04/14 11:41:42;;;;;;;20.03;15.03;;;;;;;;;;5044344;28;20036;-83
2022/04/14 11:44:14;;;;;;;20.52;16.17;;;;;;;;;;5074592;28;20683;-84
2022/04/14 11:47:01;;;;;;;22.52;14.27;;;;;;;;;;5060040;28;20040;-84
2022/04/14 11:49:30;;;;;;;22.20;12.23;;;;;;;;;;5093390;28;20042;-84
2022/04/14 11:51:57;;;;;;;19.00;11.82;;;;;;;;;;5046196;28;20044;-91
2022/04/14 11:54:33;;;;;;;15.85;10.65;;;;;;;;;;5079942;28;20077;-93
2022/04/14 11:57:00;;;;;;;15.35;9.63;;;;;;;;;;5076977;28;20559;-91
2022/04/14 11:59:30;;;;;;;16.60;8.88;;;;;;;;;;5041357;28;20126;-88
2022/04/14 12:01:59;;;;;;;14.10;8.05;;;;;;;;;;5042523;28;20031;-85
2022/04/14 12:04:24;;;;;;;12.32;8.48;;;;;;;;;;5058016;28;20024;-85
2022/04/14 12:06:51;;;;;;;11.73;7.57;;;;;;;;;;5041178;28;20039;-84
2022/04/14 12:09:20;;;;;;;10.02;6.40;;;;;;;;;;5032576;28;20460;-82
2022/04/14 12:11:45;;;;;;;8.50;5.50;;;;;;;;;;5043235;28;20085;-84
2022/04/14 12:14:11;;;;;;;9.25;5.90;;;;;;;;;;5045219;28;20506;-84
2022/04/14 12:16:36;;;;;;;11.68;8.15;;;;;;;;;;5057943;28;20032;-84
2022/04/14 12:19:05;;;;;;;14.18;10.27;;;;;;;;;;5028849;28;20028;-84
2022/04/14 12:21:30;;;;;;;12.88;8.70;;;;;;;;;;5053072;28;20043;-83
2022/04/14 12:23:58;;;;;;;11.40;7.35;;;;;;;;;;5055372;28;20048;-84
2022/04/14 12:26:26;;;;;;;8.40;4.75;;;;;;;;;;5059649;28;20119;-84
2022/04/14 12:28:52;;;;;;;8.30;4.70;;;;;;;;;;5051789;27;20023;-85
2022/04/14 12:31:17;;;;;;;6.18;4.38;;;;;;;;;;5059848;28;20402;-83
2022/04/14 12:33:55;;;;;;;6.35;4.78;;;;;;;;;;5059491;28;20028;-84
2022/04/14 12:36:20;;;;;;;5.40;3.95;;;;;;;;;;5060800;28;20028;-83
2022/04/14 12:38:47;;;;;;;5.43;3.65;;;;;;;;;;5059676;28;20040;-84
2022/04/14 12:41:17;;;;;;;8.68;4.20;;;;;;;;;;5043921;28;20088;-82
2022/04/14 12:43:45;;;;;;;7.30;4.20;;;;;;;;;;5060472;28;20083;-84
2022/04/14 12:46:26;;;;;;;6.93;3.60;;;;;;;;;;5048490;28;20505;-81
2022/04/14 12:49:04;;;;;;;9.73;4.32;;;;;;;;;;5077310;28;20036;-81
2022/04/14 12:51:43;;;;;;;5.35;3.58;;;;;;;;;;5098774;28;20048;-81
2022/04/14 12:54:14;;;;;;;7.65;4.03;;;;;;;;;;5080888;28;20505;-82
2022/04/14 12:56:40;;;;;;;8.52;4.18;;;;;;;;;;5080344;28;20036;-84
2022/04/14 12:59:16;;;;;;;7.72;4.60;;;;;;;;;;5080974;28;20032;-81
2022/04/14 13:01:54;;;;;;;6.53;4.78;;;;;;;;;;5067844;28;20039;-81
2022/04/14 13:04:38;;;;;;;6.40;5.05;;;;;;;;;;5066482;28;20031;-79
2022/04/14 13:07:08;;;;;;;6.50;4.70;;;;;;;;;;5067210;28;20028;-81
2022/04/14 13:09:36;;;;;;;8.00;5.32;;;;;;;;;;5082948;28;20066;-79
2022/04/14 13:12:01;;;;;;;6.88;4.57;;;;;;;;;;5049769;28;20039;-79
2022/04/14 13:14:28;;;;;;;6.05;5.13;;;;;;;;;;5049509;28;20180;-79
2022/04/14 13:16:55;;;;;;;9.35;5.60;;;;;;;;;;5066902;28;20104;-79
2022/04/14 13:19:21;;;;;;;8.43;5.03;;;;;;;;;;5065195;28;20405;-80
2022/04/14 13:21:46;;;;;;;32.72;8.88;;;;;;;;;;5050136;28;20036;-82
2022/04/14 13:24:11;;;;;;;6.82;4.97;;;;;;;;;;5049911;28;20107;-80
2022/04/14 13:26:37;;;;;;;7.63;5.22;;;;;;;;;;5063155;28;20039;-82
2022/04/14 13:29:03;;;;;;;5.72;4.55;;;;;;;;;;5044119;28;20553;-83
2022/04/14 13:31:28;;;;;;;6.50;4.53;;;;;;;;;;5042951;28;20043;-83
2022/04/14 13:33:54;;;;;;;6.10;4.55;;;;;;;;;;5043605;28;20036;-83
2022/04/14 13:36:19;;;;;;;7.13;4.70;;;;;;;;;;5043997;28;20034;-83
2022/04/14 13:38:45;;;;;;;6.38;4.47;;;;;;;;;;5060116;28;20047;-83
2022/04/14 13:41:11;;;;;;;14.45;10.95;;;;;;;;;;5060395;28;20050;-82
2022/04/14 13:43:37;;;;;;;19.10;13.50;;;;;;;;;;5060567;28;20030;-83
2022/04/14 13:46:03;;;;;;;22.58;18.08;;;;;;;;;;5043666;28;20031;-83
2022/04/14 13:48:28;;;;;;;13.60;9.88;;;;;;;;;;5078460;28;20486;-82
2022/04/14 13:50:54;;;;;;;9.40;6.97;;;;;;;;;;5064273;28;20048;-83
2022/04/14 13:53:19;;;;;;;9.52;5.55;;;;;;;;;;5047796;28;20469;-83
2022/04/14 13:55:45;;;;;;;7.85;4.80;;;;;;;;;;5064100;28;20040;-84
2022/04/14 13:58:10;;;;;;;7.88;4.22;;;;;;;;;;5044869;28;20035;-83
2022/04/14 14:00:36;;;;;;;4.82;2.95;;;;;;;;;;5054663;28;20043;-84
2022/04/14 14:03:02;;;;;;;5.10;2.13;;;;;;;;;;5038153;28;20028;-84
2022/04/14 14:05:28;;;;;;;3.33;1.63;;;;;;;;;;5064237;28;20169;-83
2022/04/14 14:07:53;;;;;;;3.90;1.60;;;;;;;;;;5047528;28;20032;-83
2022/04/14 14:10:19;;;;;;;2.42;1.30;;;;;;;;;;5047550;28;20031;-84
2022/04/14 14:12:44;;;;;;;2.75;1.20;;;;;;;;;;5064436;28;20031;-84
2022/04/14 14:15:10;;;;;;;5.10;1.63;;;;;;;;;;5047490;28;20084;-84
2022/04/14 14:17:38;;;;;;;2.03;1.08;;;;;;;;;;5047389;28;20496;-84
2022/04/14 14:20:08;;;;;;;3.70;1.25;;;;;;;;;;5048285;28;20070;-84
2022/04/14 14:22:33;;;;;;;3.05;1.10;;;;;;;;;;5057212;28;20042;-83
2022/04/14 14:24:58;;;;;;;4.00;0.85;;;;;;;;;;5068001;28;20413;-83
2022/04/14 14:27:24;;;;;;;2.38;1.10;;;;;;;;;;5043727;28;20032;-83
2022/04/14 14:29:49;;;;;;;3.83;1.27;;;;;;;;;;5058049;28;20076;-83
2022/04/14 14:32:15;;;;;;;1.85;0.73;;;;;;;;;;5059929;28;20071;-83
2022/04/14 14:34:40;;;;;;;4.30;1.38;;;;;;;;;;5060168;28;20101;-83
2022/04/14 14:37:07;;;;;;;3.85;1.33;;;;;;;;;;5027192;28;20024;-82
2022/04/14 14:39:33;;;;;;;2.35;0.80;;;;;;;;;;5027141;28;20036;-84
2022/04/14 14:41:58;;;;;;;2.28;0.85;;;;;;;;;;5061380;28;20039;-83